Air Quality Table

TIMESTAMP NO2 SO2 O3 PM10 PM2.5 CO TEMP HUM AIRPRES WS WD NO BENZENE
2022-10-02 01:00 20.29 µg/m3 0.3 µg/m3 57.09 µg/m3 19.05 µg/m3 9.86 µg/m3 0.27 mg/m3 25.79 °C 73.77 % 1,017.39 mbar 2.69 m/s 174.37 Deg 8.17 µg/m3 1.08 µg/m3
2022-10-01 01:00 30.93 µg/m3 0.43 µg/m3 45.13 µg/m3 16.6 µg/m3 9.64 µg/m3 0.32 mg/m3 26.22 °C 78.51 % 1,010.28 mbar 2.96 m/s 128.12 Deg 23.44 µg/m3 1.61 µg/m3
2022-09-30 01:00 36.71 µg/m3 0.5 µg/m3 50.18 µg/m3 19.37 µg/m3 6.66 µg/m3 0.29 mg/m3 25.06 °C 62.25 % 1,009.81 mbar 1.53 m/s 204.86 Deg 17.47 µg/m3 2.1 µg/m3
2022-09-29 01:00 38.86 µg/m3 0.39 µg/m3 47.62 µg/m3 19.01 µg/m3 7.17 µg/m3 0.27 mg/m3 24.2 °C 62.47 % 1,010.28 mbar 1.78 m/s 238.18 Deg 11.04 µg/m3 1.74 µg/m3
2022-09-28 01:00 33.65 µg/m3 0.28 µg/m3 53.21 µg/m3 19.95 µg/m3 8.06 µg/m3 0.29 mg/m3 25.22 °C 68.29 % 1,009.96 mbar 1.95 m/s 246.62 Deg 7.52 µg/m3 1.29 µg/m3
2022-09-27 01:00 20.23 µg/m3 0.27 µg/m3 61.5 µg/m3 23.79 µg/m3 11.05 µg/m3 0.3 mg/m3 26.65 °C 70.24 % 1,011.23 mbar 2.16 m/s 195.68 Deg 5.85 µg/m3 1.04 µg/m3
2022-09-26 01:00 24.29 µg/m3 0.4 µg/m3 59.46 µg/m3 19.56 µg/m3 8.57 µg/m3 0.24 mg/m3 25.13 °C 64.97 % 1,016.11 mbar 1.91 m/s 185.59 Deg 11.05 µg/m3 1.85 µg/m3
2022-09-25 01:00 34.08 µg/m3 0.64 µg/m3 67.7 µg/m3 21.15 µg/m3 8.72 µg/m3 0.31 mg/m3 23.51 °C 54.47 % 1,019.26 mbar 2.71 m/s 82.41 Deg 21.8 µg/m3 1.81 µg/m3
2022-09-24 01:00 18.75 µg/m3 0.48 µg/m3 74.62 µg/m3 20.03 µg/m3 7.7 µg/m3 0.28 mg/m3 22.38 °C 62.65 % 1,015.52 mbar 5.34 m/s 52.03 Deg 20.4 µg/m3 1.24 µg/m3
2022-09-23 01:00 40.84 µg/m3 0.51 µg/m3 49.42 µg/m3 10.06 µg/m3 6.81 µg/m3 0.27 mg/m3 22.37 °C 78.07 % 1,013.84 mbar 3.73 m/s 92.99 Deg 24.46 µg/m3 7.34 µg/m3
2022-09-22 01:00 29.35 µg/m3 0.35 µg/m3 24 µg/m3 18.15 µg/m3 7.55 µg/m3 0.24 mg/m3 26.35 °C 63.08 % 1,013.07 mbar 1.36 m/s 241.99 Deg 7.83 µg/m3 1.52 µg/m3
2022-09-21 01:00 37.26 µg/m3 0.48 µg/m3 58.37 µg/m3 23.3 µg/m3 9.94 µg/m3 0.35 mg/m3 26.39 °C 73.35 % 1,012.26 mbar 1.66 m/s 116.21 Deg 20.81 µg/m3 2.16 µg/m3
2022-09-20 01:00 40.12 µg/m3 0.54 µg/m3 57.16 µg/m3 32.94 µg/m3 9.89 µg/m3 0.28 mg/m3 26.73 °C 56.3 % 1,013.41 mbar 1.38 m/s 176.68 Deg 18.26 µg/m3 1.91 µg/m3
2022-09-19 01:00 21.65 µg/m3 0.33 µg/m3 70.85 µg/m3 22.63 µg/m3 9.31 µg/m3 0.22 mg/m3 26.51 °C 58.59 % 1,013.06 mbar 1.61 m/s 249.27 Deg 5.67 µg/m3 1.07 µg/m3
2022-09-18 01:00 20.71 µg/m3 0.27 µg/m3 53.59 µg/m3 30.08 µg/m3 10.53 µg/m3 0.21 mg/m3 27.94 °C 64.37 % 1,009.62 mbar 2.26 m/s 249.19 Deg 3.75 µg/m3 0.85 µg/m3
2022-09-17 01:00 24.17 µg/m3 0.36 µg/m3 51.11 µg/m3 19 µg/m3 7.17 µg/m3 0.28 mg/m3 27.74 °C 70.52 % 1,011.68 mbar 1.59 m/s 177.36 Deg 10.52 µg/m3 1.15 µg/m3
2022-09-16 01:00 24.63 µg/m3 0.4 µg/m3 48.68 µg/m3 19.86 µg/m3 7.86 µg/m3 0.23 mg/m3 27.51 °C 67.11 % 1,014.79 mbar 1.51 m/s 190.72 Deg 10.13 µg/m3 1.23 µg/m3
2022-09-15 01:00 30.24 µg/m3 0.56 µg/m3 40.11 µg/m3 20.77 µg/m3 7.91 µg/m3 0.27 mg/m3 27.45 °C 63.08 % 1,016.13 mbar 1.18 m/s 189.68 Deg 20.88 µg/m3 2.26 µg/m3
2022-09-14 01:00 33.58 µg/m3 0.47 µg/m3 45.31 µg/m3 23.72 µg/m3 8.08 µg/m3 0.47 mg/m3 27.23 °C 64.66 % 1,013.87 mbar 1.2 m/s 214.19 Deg 14.44 µg/m3 1.57 µg/m3
2022-09-13 01:00 32.52 µg/m3 0.53 µg/m3 55.99 µg/m3 21.86 µg/m3 8.05 µg/m3 0.27 mg/m3 27.42 °C 64.02 % 1,013.44 mbar 1.88 m/s 116.54 Deg 22.93 µg/m3 1.65 µg/m3
2022-09-12 01:00 16.62 µg/m3 0.3 µg/m3 52.48 µg/m3 21.42 µg/m3 7.81 µg/m3 0.2 mg/m3 28.85 °C 61.66 % 1,013.86 mbar 2.14 m/s 269.55 Deg 2.8 µg/m3 0.72 µg/m3
2022-09-11 01:00 22.13 µg/m3 0.35 µg/m3 49.16 µg/m3 30.67 µg/m3 16.62 µg/m3 0.28 mg/m3 28.84 °C 77.66 % 1,015.50 mbar 1.65 m/s 190.65 Deg 8.51 µg/m3 1.29 µg/m3
2022-09-10 01:00 14.79 µg/m3 0.31 µg/m3 56.18 µg/m3 21.3 µg/m3 11.26 µg/m3 0.22 mg/m3 28.96 °C 74.24 % 1,016.09 mbar 2.17 m/s 205.74 Deg 3.23 µg/m3 0.86 µg/m3
2022-09-09 01:00 12.6 µg/m3 0.32 µg/m3 61.36 µg/m3 12.96 µg/m3 6.89 µg/m3 0.21 mg/m3 28.58 °C 71.21 % 1,016.18 mbar 1.7 m/s 198.99 Deg 2.49 µg/m3 1.75 µg/m3
2022-09-08 01:00 23.74 µg/m3 0.4 µg/m3 55.82 µg/m3 18.89 µg/m3 8.56 µg/m3 0.28 mg/m3 28.17 °C 70.66 % 1,017.14 mbar 1.68 m/s 183.85 Deg 9.19 µg/m3 1.97 µg/m3
2022-09-07 01:00 26.54 µg/m3 0.63 µg/m3 62.67 µg/m3 21.07 µg/m3 8.81 µg/m3 0.28 mg/m3 27.71 °C 67.74 % 1,018.97 mbar 1.91 m/s 117.89 Deg 13.65 µg/m3 5.98 µg/m3
2022-09-06 01:00 20.4 µg/m3 1 µg/m3 54.88 µg/m3 23.43 µg/m3 14.2 µg/m3 0.31 mg/m3 27.68 °C 75.15 % 1,018.82 mbar 3.29 m/s 108.17 Deg 18.64 µg/m3 1.43 µg/m3
2022-09-05 01:00 13 µg/m3 0.75 µg/m3 52.07 µg/m3 24.21 µg/m3 12.28 µg/m3 0.25 mg/m3 30.04 °C 70.38 % 1,017.61 mbar 1.7 m/s 225.5 Deg 3.42 µg/m3 0.89 µg/m3
2022-09-04 01:00 17.91 µg/m3 0.84 µg/m3 53.72 µg/m3 22.49 µg/m3 12.8 µg/m3 0.23 mg/m3 28.49 °C 70.24 % 1,016.14 mbar 1.49 m/s 187.87 Deg 5.34 µg/m3 1.17 µg/m3

It is to be noted that the data is provisional and subject to quality assurance procedures. For validated data kindly refer your request to contact.air@era.org.mt